Cornell, Michigan
Current Conditions -  °F | °C
As of 4:55 AM on Friday 28 Nov 2014 (Local Time) from KESC Reporting Station
Broken Clouds Broken Clouds  
Wind Chill: -6°   Ceiling: 12000
Heat Index:   Visibility: 10mi
Dew Point:   Wind: 6mph
Humidity: 78%   Direction: 270°W
Pressure: 30.28"   Gusts: NA
Location:  45.9°N, 87.22°W
Report Text: KESC 280955Z AUTO 27005KT 10SM BKN120 M15/M18 A3028 RMK AO1
Loading
Personal Weather Stations






























Interactive Weather Map New forecast layout! Learn more

10-Day Weather Forecast

Advertisements
Track Severe Weather on mobile